Terminal Aerodrome Forecast
Issued by NWS Los Angeles, CA

Home | Current Version | Previous Version | Text Only | Print | Product List | Glossary On
Versions: 1 2 3 4 5 6 7 8 9 10 11 12 13 14 15 16 17 18 19 20 21 22 23 24 25 26 27 28 29 30 31 32 33 34 35
000
FTUS46 KLOX 291720
TAFSMX
TAF
KSMX 291720Z 2918/3018 30008KT P6SM BKN008
     FM291900 30015G25KT P6SM SCT200
     FM300200 31010KT P6SM BKN006
     FM300500 29005KT 5SM BR OVC004
     FM301500 VRB03KT P6SM OVC006
     FM301700 30006KT P6SM SCT008=

USA.gov is the U.S. government's official web portal to all federal, state and local government web resources and services.